Date,TemperatureHighF,TemperatureAvgF,TemperatureLowF,DewpointHighF,DewpointAvgF,DewpointLowF,HumidityHigh,HumidityAvg,HumidityLow,PressureMaxIn,PressureMinIn,WindSpeedMaxMPH,WindSpeedAvgMPH,GustSpeedMaxMPH,PrecipitationSumIn
2013-1-1,50.0,34.0,30.0,32.0,27.2,24.0,98,77,38,0.00,40.00,7,2,11,0.00
2013-1-2,52.0,36.5,32.0,29.0,24.2,21.0,76,61,36,0.00,40.00,6,2,9,0.00
2013-1-3,50.0,39.5,33.0,36.0,25.4,17.0,73,57,39,0.00,40.00,10,4,22,0.00
2013-1-4,54.0,44.4,39.0,41.0,38.6,36.0,93,81,56,0.00,40.00,7,2,19,0.00
2013-1-5,45.0,40.8,37.0,38.0,35.7,32.0,98,82,65,0.00,40.00,3,0,7,0.01
2013-1-6,51.0,40.7,37.0,41.0,36.9,35.0,98,87,62,0.00,40.00,9,3,19,0.03
2013-1-7,46.0,42.1,37.0,46.0,41.9,36.0,99,99,96,0.00,40.00,13,8,25,0.37
2013-1-8,47.0,43.9,42.0,46.0,43.5,40.0,99,98,76,0.00,40.00,11,7,23,0.08
2013-1-9,47.0,37.5,31.0,42.0,36.3,31.0,99,95,74,0.00,40.00,13,3,31,0.36
2013-1-10,37.0,32.2,31.0,34.0,31.6,30.0,99,97,88,0.00,40.00,4,1,14,0.01
2013-1-11,41.0,31.0,25.0,32.0,28.5,21.0,99,90,65,0.00,40.00,4,1,12,0.15
2013-1-12,34.0,27.6,24.0,27.0,24.7,22.0,97,89,68,0.00,40.00,4,1,8,0.06
2013-1-13,28.0,24.2,22.0,26.0,22.7,21.0,97,94,88,0.00,40.00,4,0,8,0.01
2013-1-14,43.0,29.1,22.0,32.0,25.4,20.0,95,86,63,0.00,40.00,2,0,6,0.11
2013-1-15,41.0,33.6,30.0,35.0,30.6,26.0,98,89,70,0.00,40.00,5,2,11,0.02
2013-1-16,59.0,39.5,33.0,35.0,30.0,16.0,99,76,20,0.00,40.00,3,0,8,0.00
2013-1-17,66.0,49.0,42.0,29.0,23.0,18.0,48,37,22,0.00,40.00,5,2,8,0.00
2013-1-18,68.0,54.6,48.0,35.0,22.3,17.0,38,29,20,0.00,40.00,5,1,8,0.00
2013-1-19,66.0,54.5,46.0,36.0,23.4,14.0,44,30,21,0.00,40.00,4,0,8,0.00
2013-1-20,62.0,47.6,43.0,35.0,22.1,16.0,64,37,22,0.00,40.00,4,1,8,0.00
2013-1-21,60.0,46.3,42.0,25.0,17.2,11.0,43,31,19,0.00,40.00,5,2,10,0.00
2013-1-22,68.0,49.4,44.0,32.0,18.9,12.0,58,31,18,0.00,40.00,4,1,8,0.00
2013-1-23,49.0,40.4,34.0,38.0,30.8,23.0,99,72,40,0.00,40.00,5,1,9,0.27
2013-1-24,56.0,41.1,34.0,46.0,39.8,34.0,99,95,69,0.00,40.00,7,3,15,0.21
2013-1-25,47.0,44.3,36.0,47.0,44.3,36.0,99,99,99,0.00,40.00,7,4,15,0.61
2013-1-26,38.0,35.5,32.0,38.0,35.5,32.0,99,99,99,0.00,40.00,7,4,18,0.17
2013-1-27,37.0,34.0,32.0,37.0,34.0,32.0,99,99,99,0.00,40.00,6,3,14,0.31
2013-1-28,38.0,34.4,32.0,38.0,34.4,32.0,99,99,99,0.00,40.00,6,2,17,0.85
2013-1-29,42.0,38.7,37.0,42.0,38.7,37.0,99,99,99,0.00,40.00,5,2,14,0.91
2013-1-30,42.0,38.7,36.0,42.0,38.7,36.0,99,99,99,0.00,40.00,8,5,15,0.20
2013-1-31,51.0,42.7,39.0,46.0,41.5,39.0,99,95,75,0.00,40.00,2,0,6,0.06
2013-2-1,50.0,41.9,37.0,43.0,39.8,34.0,99,92,64,0.00,40.00,7,3,12,0.01
2013-2-2,55.0,48.1,43.0,41.0,33.3,27.0,85,57,43,0.00,40.00,4,1,10,0.00
2013-2-3,43.0,38.9,36.0,40.0,37.8,35.0,99,96,85,0.00,40.00,2,0,9,0.00
2013-2-4,55.0,42.2,36.0,41.0,37.3,35.0,99,84,49,0.00,40.00,5,1,10,0.00
2013-2-5,46.0,39.8,37.0,45.0,39.4,37.0,99,98,91,0.00,40.00,7,5,20,0.39
2013-2-6,47.0,39.7,36.0,43.0,37.6,35.0,99,92,74,0.00,40.00,12,5,23,0.17
2013-2-7,45.0,35.2,32.0,40.0,34.3,31.0,99,96,77,0.00,40.00,6,3,21,0.21
2013-2-8,38.0,33.1,32.0,36.0,32.8,32.0,99,98,84,0.00,40.00,1,0,9,0.08
2013-2-9,41.0,35.6,33.0,37.0,34.1,32.0,99,94,79,0.00,40.00,0,0,8,0.03
2013-2-10,40.0,36.4,34.0,38.0,35.8,34.0,99,97,91,0.00,40.00,1,0,8,0.03
2013-2-11,44.0,37.0,32.0,38.0,34.6,32.0,99,92,68,0.00,40.00,5,1,9,0.01
2013-2-12,47.0,40.8,37.0,47.0,40.8,37.0,100,99,99,0.00,40.00,6,3,11,0.07
2013-2-13,44.0,41.6,40.0,44.0,41.6,40.0,100,100,100,0.00,40.00,4,2,10,0.07
2013-2-14,55.0,44.1,38.0,50.0,42.5,38.0,100,94,59,0.00,40.00,5,1,11,0.03
2013-2-15,64.0,47.1,39.0,47.0,40.7,27.0,100,81,50,0.00,40.00,7,4,13,0.01
2013-2-16,46.0,40.4,34.0,46.0,36.5,24.0,99,88,41,0.00,40.00,7,2,14,0.07
2013-2-17,47.0,35.9,31.0,38.0,32.4,29.0,99,87,59,0.00,40.00,3,1,9,0.04
2013-2-18,41.0,34.0,30.0,34.0,31.4,28.0,99,90,71,0.00,40.00,5,3,13,0.01
2013-2-19,42.0,35.6,32.0,41.0,34.6,31.0,99,96,87,0.00,40.00,4,1,10,0.16
2013-2-20,44.0,35.8,33.0,40.0,32.3,26.0,99,87,74,0.00,40.00,6,2,12,0.18
2013-2-21,37.0,34.1,32.0,34.0,27.5,17.0,97,79,46,0.00,40.00,8,3,17,0.31
2013-2-22,38.0,35.5,33.0,28.0,22.8,16.0,82,60,48,0.00,40.00,13,8,28,0.38
2013-2-23,41.0,33.6,31.0,39.0,29.1,24.0,99,84,70,0.00,40.00,5,1,14,0.36
2013-2-24,52.0,37.1,31.0,38.0,31.7,24.0,99,81,58,0.00,40.00,7,4,14,0.01
2013-2-25,42.0,35.1,32.0,41.0,33.2,28.0,99,93,81,0.00,40.00,10,4,20,0.19
2013-2-26,47.0,36.4,31.0,37.0,30.2,26.0,99,79,58,0.00,40.00,5,2,12,0.03
2013-2-27,47.0,39.7,35.0,43.0,36.9,33.0,99,90,80,0.00,40.00,5,4,13,0.09
2013-2-28,49.0,45.4,40.0,43.0,39.8,34.0,83,81,79,0.00,40.00,10,6,20,0.60
2013-3-1,62.0,50.4,44.0,54.0,42.8,36.0,100,76,47,0.00,40.00,7,3,14,0.06
2013-3-2,50.0,45.1,38.0,49.0,42.0,35.0,99,88,78,0.00,40.00,4,1,14,0.13
2013-3-3,48.0,37.5,31.0,38.0,31.7,26.0,99,80,56,0.00,40.00,5,3,15,0.13
2013-3-4,56.0,41.9,32.0,36.0,29.9,21.0,91,65,38,0.00,40.00,5,2,11,0.00
2013-3-5,42.0,39.9,36.0,42.0,35.6,30.0,99,86,62,0.00,40.00,7,2,13,0.26
2013-3-6,40.0,37.4,32.0,40.0,31.0,23.0,99,78,68,0.00,40.00,8,4,24,0.65
2013-3-7,55.0,40.7,32.0,39.0,32.3,25.0,98,74,47,0.00,40.00,4,1,12,0.01
2013-3-8,51.0,39.9,32.0,41.0,35.8,30.0,99,86,62,0.00,40.00,4,1,12,0.01
2013-3-9,58.0,44.1,34.0,41.0,31.8,25.0,98,65,39,0.00,40.00,2,1,10,0.00
2013-3-10,60.0,48.8,39.0,44.0,36.8,26.0,89,65,37,0.00,40.00,4,0,9,0.00
2013-3-11,56.0,48.4,44.0,50.0,45.5,37.0,99,90,73,0.00,40.00,3,0,7,0.00
2013-3-12,59.0,48.5,43.0,51.0,41.2,32.0,99,77,57,0.00,40.00,4,1,10,0.00
2013-3-13,68.0,52.3,42.0,47.0,42.5,32.0,99,72,40,0.00,40.00,3,1,11,0.00
2013-3-14,65.0,50.1,46.0,49.0,41.5,33.0,99,75,42,0.00,40.00,5,2,15,0.00
2013-3-15,62.0,50.8,45.0,47.0,42.4,30.0,99,75,46,0.00,40.00,5,1,10,0.00
2013-3-16,46.0,41.0,34.0,43.0,35.6,22.0,99,82,58,0.00,40.00,7,3,21,0.39
2013-3-17,45.0,37.2,30.0,38.0,31.0,18.0,99,79,58,0.00,40.00,5,1,20,0.41
2013-3-18,54.0,39.8,32.0,38.0,32.2,28.0,96,77,42,0.00,40.00,6,2,10,0.04
2013-3-19,54.0,44.4,37.0,43.0,33.9,25.0,98,68,43,0.00,40.00,9,3,17,0.57
2013-3-20,47.0,39.9,32.0,45.0,34.7,24.0,99,82,54,0.00,40.00,14,6,35,1.43
2013-3-21,44.0,34.5,31.0,41.0,28.7,18.0,98,80,57,0.00,40.00,6,3,15,0.16
2013-3-22,45.0,34.8,30.0,34.0,27.7,20.0,95,76,56,0.00,40.00,4,1,11,0.06
2013-3-23,49.0,36.0,30.0,35.0,28.7,23.0,95,76,49,0.00,40.00,4,1,9,0.02
2013-3-24,55.0,41.0,33.0,40.0,33.3,26.0,89,75,55,0.00,40.00,4,2,9,0.02
2013-3-25,53.0,46.2,37.0,43.0,31.9,-3.0,85,63,14,0.00,40.00,5,2,9,0.00
2013-3-26,49.0,43.6,38.0,46.0,36.9,21.0,98,79,43,0.00,40.00,4,0,8,0.08
2013-3-27,63.0,47.5,40.0,45.0,39.2,28.0,94,75,47,0.00,40.00,1,0,10,0.01
2013-3-28,61.0,53.8,46.0,47.0,43.2,41.0,95,69,49,0.00,40.00,4,1,15,0.08
2013-3-29,65.0,53.2,45.0,47.0,44.0,39.0,95,74,48,0.00,40.00,5,1,9,0.00
2013-3-30,71.0,58.5,47.0,49.0,41.9,-99.9,83,59,44,0.00,40.00,6,5,13,0.00
2013-3-31,75.0,56.1,47.0,48.0,43.4,30.0,95,65,37,0.00,40.00,7,3,14,0.00
2013-4-1,58.0,49.6,46.0,50.0,42.5,31.0,97,78,53,0.00,40.00,1,0,9,0.00
2013-4-2,65.0,53.3,43.0,46.0,38.5,28.0,80,58,46,0.00,40.00,5,1,11,0.00
2013-4-3,67.0,55.4,46.0,45.0,43.0,37.0,93,65,45,0.00,40.00,3,1,7,0.00
2013-4-4,56.0,50.8,46.0,45.0,40.6,30.0,88,68,47,0.00,40.00,12,5,31,0.42
2013-4-5,50.0,46.5,44.0,48.0,36.1,28.0,97,70,50,0.00,40.00,11,7,23,0.92
2013-4-6,47.0,43.6,40.0,46.0,36.3,23.0,96,77,50,0.00,40.00,9,6,26,0.71
2013-4-7,52.0,40.2,34.0,40.0,34.6,17.0,94,82,50,0.00,40.00,16,6,43,0.25
2013-4-8,50.0,42.0,33.0,42.0,36.2,17.0,98,81,50,0.00,40.00,1,0,8,0.15
2013-4-9,58.0,48.0,36.0,44.0,37.0,19.0,92,67,49,0.00,40.00,4,1,9,0.01
2013-4-10,60.0,45.9,39.0,52.0,40.3,27.0,95,82,50,0.00,40.00,7,4,20,0.09
2013-4-11,54.0,43.3,34.0,40.0,36.7,33.0,96,79,56,0.00,40.00,3,1,13,0.04
2013-4-12,57.0,43.5,35.0,43.0,36.7,22.0,96,78,48,0.00,40.00,6,3,16,0.04
2013-4-13,50.0,39.8,32.0,39.0,33.0,16.0,95,77,47,0.00,40.00,5,2,16,0.19
2013-4-14,50.0,38.3,32.0,42.0,33.3,14.0,97,83,47,0.00,40.00,6,2,13,0.07
2013-4-15,46.0,38.6,33.0,40.0,32.4,15.0,95,79,47,0.00,40.00,2,1,11,0.62
2013-4-16,56.0,43.4,34.0,43.0,33.7,16.0,95,70,48,0.00,40.00,5,1,16,0.32
2013-4-17,57.0,44.3,34.0,43.0,35.2,17.0,98,72,40,0.00,40.00,2,0,10,0.06
2013-4-18,60.0,46.8,37.0,48.0,40.0,31.0,93,78,60,0.00,40.00,4,1,8,0.00
2013-4-19,55.0,46.7,42.0,52.0,38.9,25.0,97,76,48,0.00,40.00,8,4,17,0.61
2013-4-20,59.0,48.4,41.0,48.0,41.4,23.0,98,79,48,0.00,40.00,5,1,10,0.01
2013-4-21,56.0,47.1,39.0,48.0,39.0,20.0,97,75,47,0.00,40.00,5,2,13,0.06
2013-4-22,63.0,51.3,38.0,48.0,35.8,21.0,92,57,40,0.00,40.00,6,4,14,0.02
2013-4-23,66.0,54.9,41.0,33.0,26.9,11.0,46,34,23,0.00,40.00,5,3,17,0.00
2013-4-24,72.0,60.1,45.0,39.0,30.6,15.0,46,33,26,0.00,40.00,7,4,19,0.00
2013-4-25,75.0,60.8,49.0,42.0,36.8,30.0,51,41,29,0.00,40.00,5,2,15,0.00
2013-4-26,76.0,63.4,51.0,50.0,41.2,30.0,65,46,21,0.00,40.00,4,2,11,0.00
2013-4-27,79.0,61.5,50.0,45.0,36.3,28.0,51,40,19,0.00,40.00,4,2,12,0.00
2013-4-28,67.0,51.0,42.0,47.0,40.5,32.0,97,69,41,0.00,40.00,5,1,14,0.00
2013-4-29,59.0,49.3,42.0,46.0,41.1,26.0,92,75,47,0.00,40.00,6,3,15,0.09
2013-4-30,54.0,44.0,32.0,33.0,30.9,29.0,91,61,43,0.00,40.00,5,2,17,0.07
2013-5-1,64.0,47.8,34.0,41.0,34.4,29.0,90,63,41,0.00,40.00,6,4,15,0.00
2013-5-2,76.0,63.2,52.0,44.0,33.6,20.0,40,33,28,0.00,40.00,6,4,16,0.00
2013-5-3,70.0,59.7,48.0,45.0,38.7,32.0,63,46,39,0.00,40.00,8,4,19,0.00
2013-5-4,78.0,65.6,53.0,42.0,35.3,27.0,62,35,19,0.00,40.00,7,4,20,0.00
2013-5-5,84.0,67.4,52.0,43.0,35.9,29.0,72,33,20,0.00,40.00,5,4,16,0.00
2013-5-6,76.0,61.2,48.0,52.0,46.6,42.0,85,61,38,0.00,40.00,7,4,14,0.00
2013-5-7,76.0,58.6,47.0,54.0,46.8,42.0,90,68,38,0.00,40.00,8,3,15,0.00
2013-5-8,70.0,55.6,43.0,53.0,47.2,25.0,95,75,45,0.00,40.00,5,2,12,0.00
2013-5-9,76.0,61.3,50.0,57.0,49.5,38.0,95,68,36,0.00,40.00,4,2,12,0.00
2013-5-10,80.0,65.4,56.0,57.0,46.7,-99.9,79,57,31,0.00,40.00,4,1,10,0.00
2013-5-11,82.0,66.3,54.0,61.0,52.2,-99.9,90,65,34,0.00,40.00,6,3,11,0.00
2013-5-12,79.0,62.4,54.0,59.0,52.9,37.0,96,73,45,0.00,40.00,5,1,11,0.00
2013-5-13,66.0,54.1,47.0,52.0,43.4,3.0,97,73,8,0.00,40.00,6,2,21,0.02
2013-5-14,66.0,52.7,41.0,47.0,39.6,13.0,97,66,28,0.00,40.00,3,2,13,0.01
2013-5-15,56.0,49.0,44.0,52.0,43.3,34.0,96,82,61,0.00,40.00,4,1,8,0.20
2013-5-16,54.0,44.7,45.0,52.0,24.7,-99.9,97,78,34,0.00,40.00,2,0,10,0.19
2013-5-17,57.0,49.3,42.0,51.0,34.8,-99.9,94,69,44,0.00,40.00,2,0,11,0.01
2013-5-18,52.0,46.9,43.0,51.0,41.8,23.0,98,85,44,0.00,40.00,4,2,13,0.11
2013-5-19,63.0,51.3,46.0,53.0,40.1,26.0,95,68,45,0.00,40.00,5,2,12,0.12
2013-5-20,72.0,55.3,43.0,52.0,45.3,40.0,92,71,38,0.00,40.00,5,2,12,0.01
2013-5-21,51.0,41.5,35.0,47.0,38.1,16.0,99,89,44,0.00,40.00,6,2,18,0.96
2013-5-22,40.0,36.1,32.0,35.0,28.8,14.0,85,76,44,0.00,40.00,9,8,21,0.67
2013-5-23,51.0,43.8,38.0,42.0,32.2,16.0,92,68,24,0.00,40.00,7,5,17,0.27
2013-5-24,60.0,49.1,39.0,49.0,42.1,20.0,98,78,46,0.00,40.00,6,3,15,0.17
2013-5-25,68.0,53.9,39.0,49.0,43.6,20.0,99,71,36,0.00,40.00,4,1,11,0.09
2013-5-26,63.0,52.0,44.0,54.0,45.5,26.0,98,80,46,0.00,40.00,5,3,19,0.44
2013-5-27,57.0,49.2,44.0,56.0,45.3,27.0,99,88,47,0.00,40.00,9,5,22,0.94
2013-5-28,67.0,52.7,45.0,56.0,45.7,27.0,99,79,47,0.00,40.00,7,3,14,0.13
2013-5-29,63.0,49.4,42.0,55.0,44.8,27.0,97,85,47,0.00,40.00,12,4,26,0.53
2013-5-30,64.0,49.1,41.0,49.0,43.1,24.0,98,81,46,0.00,40.00,3,1,11,0.01
2013-5-31,67.0,53.8,42.0,49.0,45.1,40.0,97,75,51,0.00,40.00,4,2,13,0.01
2013-6-1,74.0,61.4,48.0,53.0,48.2,42.0,87,64,42,0.00,40.00,3,1,11,0.00
2013-6-2,69.0,55.8,48.0,52.0,49.3,46.0,99,81,47,0.00,40.00,3,2,14,0.00
2013-6-3,72.0,60.6,46.0,56.0,49.0,27.0,97,68,46,0.00,40.00,5,3,17,0.00
2013-6-4,77.0,63.0,49.0,55.0,49.5,45.0,96,65,35,0.00,40.00,5,3,15,0.00
2013-6-5,81.0,68.8,56.0,59.0,52.8,49.0,79,59,35,0.00,40.00,4,2,13,0.00
2013-6-6,79.0,66.9,54.0,62.0,56.6,50.0,96,72,46,0.00,40.00,5,2,14,0.00
2013-6-7,79.0,66.4,54.0,59.0,48.8,37.0,85,56,25,0.00,40.00,5,2,13,0.00
2013-6-8,77.0,62.1,51.0,56.0,47.2,34.0,98,64,24,0.00,40.00,6,3,14,0.00
2013-6-9,72.0,59.7,48.0,53.0,48.2,45.0,92,68,45,0.00,40.00,6,4,17,0.00
2013-6-10,69.0,55.0,43.0,47.0,44.4,40.0,97,71,39,0.00,40.00,5,2,15,0.00
2013-6-11,61.0,50.7,44.0,47.0,43.7,40.0,92,78,58,0.00,40.00,2,0,11,0.00
2013-6-12,62.0,50.5,43.0,48.0,44.5,41.0,97,81,56,0.00,40.00,2,0,11,0.00
2013-6-13,57.0,48.0,43.0,54.0,45.7,27.0,97,92,51,0.00,40.00,5,1,12,0.23
2013-6-14,69.0,59.7,44.0,53.0,49.3,23.0,91,70,42,0.00,40.00,5,2,14,0.03
2013-6-15,79.0,62.5,49.0,58.0,52.1,46.0,95,72,38,0.00,40.00,4,1,10,0.00
2013-6-16,74.0,61.7,47.0,56.0,50.8,27.0,98,70,46,0.00,40.00,5,1,11,0.00
2013-6-17,75.0,57.3,48.0,53.0,49.2,45.0,96,77,40,0.00,40.00,6,2,21,0.00
2013-6-18,69.0,54.4,46.0,52.0,47.1,42.0,97,78,48,0.00,40.00,5,2,22,0.01
2013-6-19,62.0,51.1,45.0,56.0,47.1,26.0,98,87,44,0.00,40.00,4,2,11,0.12
2013-6-20,58.0,50.5,46.0,55.0,47.6,40.0,98,90,75,0.00,40.00,4,1,9,0.23
2013-6-21,70.0,68.2,63.0,50.0,48.6,48.0,58,50,47,0.00,40.00,1,0,9,0.03
2013-6-22,80.0,71.9,51.0,54.0,49.2,44.0,86,46,33,0.00,40.00,4,1,13,0.00
2013-6-23,69.0,60.2,53.0,61.0,55.1,41.0,97,84,54,0.00,40.00,6,0,13,0.24
2013-6-24,63.0,57.0,52.0,56.0,52.4,45.0,97,85,74,0.00,40.00,6,2,13,0.24
2013-6-25,65.0,58.4,53.0,62.0,55.4,47.0,97,90,77,0.00,40.00,4,2,18,1.20
2013-6-26,68.0,62.7,57.0,61.0,57.1,51.0,95,82,76,0.00,40.00,3,1,8,0.65
2013-6-27,82.0,66.6,57.0,66.0,57.6,51.0,93,75,54,0.00,40.00,3,1,10,0.02
2013-6-28,89.0,72.9,59.0,69.0,60.6,52.0,97,69,35,0.00,40.00,4,2,11,0.00
2013-6-29,85.0,72.5,59.0,64.0,56.8,51.0,76,59,42,0.00,40.00,2,1,11,0.00
2013-6-30,91.0,77.1,65.0,67.0,61.6,55.0,81,60,40,0.00,40.00,5,2,10,0.00
2013-7-1,88.0,75.6,62.0,69.0,64.8,59.0,92,71,52,0.00,40.00,3,1,11,0.00
2013-7-2,88.0,74.9,62.0,71.0,64.5,58.0,96,72,50,0.00,40.00,5,3,13,0.00
2013-7-3,84.0,70.1,57.0,59.0,52.4,40.0,85,58,25,0.00,40.00,7,3,13,0.00
2013-7-4,75.0,62.7,50.0,53.0,49.8,45.0,92,65,40,0.00,40.00,6,4,17,0.00
2013-7-5,72.0,60.0,47.0,53.0,50.0,46.0,95,72,47,0.00,40.00,5,2,19,0.00
2013-7-6,73.0,58.5,49.0,56.0,52.4,48.0,97,82,52,0.00,40.00,5,2,17,0.00
2013-7-7,79.0,65.3,53.0,60.0,55.6,51.0,97,74,48,0.00,40.00,4,2,12,0.00
2013-7-8,80.0,61.7,52.0,59.0,52.6,44.0,97,75,41,0.00,40.00,5,3,13,0.00
2013-7-9,87.0,72.2,56.0,62.0,55.2,49.0,90,58,31,0.00,40.00,5,2,12,0.00
2013-7-10,83.0,69.8,58.0,60.0,51.2,-99.9,84,57,37,0.00,40.00,5,3,16,0.00
2013-7-11,74.0,60.3,46.0,50.0,46.7,42.0,92,64,39,0.00,40.00,7,3,17,0.00
2013-7-12,76.0,61.2,47.0,53.0,47.6,45.0,95,65,35,0.00,40.00,5,3,15,0.00
2013-7-13,77.0,62.4,47.0,54.0,46.5,40.0,96,61,31,0.00,40.00,5,4,17,0.00
2013-7-14,84.0,68.5,54.0,54.0,47.6,40.0,76,50,30,0.00,40.00,5,3,15,0.00
2013-7-15,82.0,67.1,53.0,53.0,47.1,40.0,67,50,35,0.00,40.00,5,4,14,0.00
2013-7-16,81.0,69.5,54.0,61.0,56.6,51.0,95,65,48,0.00,40.00,8,3,14,0.00
2013-7-17,80.0,66.6,51.0,57.0,53.8,50.0,98,67,43,0.00,40.00,8,2,14,0.01
2013-7-18,83.0,69.9,53.0,59.0,51.1,42.0,97,55,28,0.00,40.00,5,2,13,0.00
2013-7-19,79.0,67.0,53.0,59.0,54.7,42.0,96,67,42,0.00,40.00,5,3,15,0.00
2013-7-20,80.0,65.4,54.0,60.0,54.0,-99.9,97,71,42,0.00,40.00,5,3,23,0.00
2013-7-21,83.0,68.9,54.0,58.0,54.4,50.0,94,64,37,0.00,40.00,5,3,14,0.00
2013-7-22,85.0,70.4,55.0,62.0,53.5,40.0,97,60,30,0.00,40.00,5,3,13,0.00
2013-7-23,90.0,73.0,59.0,58.0,49.2,44.0,69,46,21,0.00,40.00,5,2,13,0.00
2013-7-24,91.0,76.7,63.0,55.0,47.6,37.0,63,39,15,0.00,40.00,4,2,12,0.00
2013-7-25,89.0,75.8,62.0,54.0,45.4,36.0,51,36,19,0.00,40.00,4,2,15,0.00
2013-7-26,88.0,71.7,59.0,54.0,48.1,39.0,71,47,20,0.00,40.00,5,3,16,0.00
2013-7-27,80.0,65.9,53.0,49.0,43.1,37.0,68,46,25,0.00,40.00,5,3,17,0.00
2013-7-28,78.0,62.0,48.0,52.0,48.6,44.0,92,65,35,0.00,40.00,5,3,12,0.00
2013-7-29,79.0,60.4,48.0,56.0,50.7,35.0,97,73,42,0.00,40.00,6,3,12,0.00
2013-7-30,82.0,64.8,50.0,57.0,53.2,49.0,98,69,37,0.00,40.00,5,1,11,0.00
2013-7-31,75.0,59.2,52.0,62.0,55.5,51.0,99,88,63,0.00,40.00,5,1,11,0.00
2013-8-1,57.0,56.0,54.0,56.0,53.4,48.0,98,91,80,0.00,40.00,2,0,8,0.06
2013-8-2,75.0,64.8,55.0,56.0,53.5,51.0,91,68,50,0.00,40.00,3,1,12,0.00
2013-8-3,80.0,64.7,52.0,59.0,54.0,50.0,97,72,39,0.00,40.00,5,3,16,0.00
2013-8-4,88.0,71.4,58.0,62.0,56.5,52.0,93,63,32,0.00,40.00,5,2,11,0.00
2013-8-5,88.0,73.7,60.0,62.0,56.2,52.0,86,57,32,0.00,40.00,3,1,9,0.00
2013-8-6,90.0,75.6,62.0,59.0,50.1,36.0,73,46,20,0.00,40.00,3,1,11,0.00
2013-8-7,73.0,63.4,55.0,56.0,49.7,39.0,94,63,33,0.00,40.00,6,1,13,0.00
2013-8-8,79.0,67.2,53.0,58.0,54.4,41.0,97,66,45,0.00,40.00,4,2,12,0.00
2013-8-9,82.0,65.9,59.0,64.0,57.7,55.0,90,77,41,0.00,40.00,3,1,12,0.03
2013-8-10,76.0,60.0,55.0,59.0,45.3,-99.9,97,82,58,0.00,40.00,7,3,10,0.02
2013-8-11,76.0,63.0,54.0,54.0,-14.9,-99.9,96,48,68,0.00,40.00,4,1,9,0.01
2013-8-12,73.0,64.6,56.0,60.0,56.3,52.0,88,75,62,0.00,40.00,3,1,10,0.01
2013-8-13,84.0,66.1,52.0,61.0,50.8,-99.9,95,63,35,0.00,40.00,5,2,11,0.01
2013-8-14,86.0,66.4,58.0,56.0,51.5,48.0,81,62,29,0.00,40.00,5,2,12,0.00
2013-8-15,84.0,64.2,58.0,64.0,53.1,-99.9,97,76,48,0.00,40.00,2,0,9,0.00
2013-8-16,84.0,66.2,61.0,66.0,55.0,-99.9,99,74,43,0.00,40.00,1,0,9,0.01
2013-8-17,83.0,66.3,55.0,59.0,52.6,-99.9,87,66,44,0.00,40.00,3,1,13,0.01
2013-8-18,83.0,68.6,55.0,61.0,55.4,46.0,98,66,41,0.00,40.00,5,3,12,0.00
2013-8-19,86.0,67.0,58.0,60.0,50.1,-99.9,95,64,33,0.00,40.00,5,2,15,0.00
2013-8-20,79.0,64.1,52.0,57.0,48.2,35.0,98,61,30,0.00,40.00,6,4,16,0.00
2013-8-21,85.0,67.8,54.0,56.0,50.4,45.0,76,56,34,0.00,40.00,6,3,18,0.00
2013-8-22,79.0,68.5,63.0,61.0,56.0,50.0,82,65,51,0.00,40.00,6,1,12,0.00
2013-8-23,76.0,64.2,56.0,59.0,55.8,46.0,98,76,54,0.00,40.00,4,1,9,0.02
2013-8-24,73.0,61.6,53.0,57.0,51.4,-99.9,89,72,52,0.00,40.00,3,0,9,0.00
2013-8-25,66.0,57.6,52.0,62.0,54.0,49.0,94,87,79,0.00,40.00,5,2,12,0.21
2013-8-26,79.0,67.8,57.0,56.0,52.0,49.0,77,58,40,0.00,40.00,7,3,17,0.04
2013-8-27,76.0,60.8,56.0,57.0,53.4,50.0,86,77,52,0.00,40.00,3,1,8,0.01
2013-8-28,80.0,72.2,62.0,60.0,58.2,57.0,89,64,46,0.00,40.00,2,1,9,0.00
2013-8-29,75.0,63.7,58.0,65.0,60.0,51.0,99,88,71,0.00,40.00,5,2,15,0.08
2013-8-30,81.0,66.9,59.0,61.0,57.3,53.0,99,74,48,0.00,40.00,4,1,11,0.04
2013-8-31,86.0,69.9,57.0,64.0,55.5,-99.9,93,65,39,0.00,40.00,4,1,12,0.01
2013-9-1,84.0,64.0,54.0,57.0,53.5,51.0,98,73,34,0.00,40.00,5,3,19,0.00
2013-9-2,76.0,63.8,58.0,60.0,55.7,52.0,97,76,46,0.00,40.00,3,0,12,0.00
2013-9-3,79.0,64.1,55.0,56.0,51.6,48.0,92,66,40,0.00,40.00,3,0,10,0.00
2013-9-4,70.0,60.2,54.0,58.0,55.3,53.0,98,84,62,0.00,40.00,3,0,7,0.00
2013-9-5,61.0,55.3,53.0,58.0,51.9,46.0,98,89,71,0.00,40.00,6,1,15,1.36
2013-9-6,68.0,58.0,53.0,62.0,52.0,45.0,99,81,68,0.00,40.00,6,3,12,1.24
2013-9-7,74.0,55.2,50.0,50.0,17.6,-99.9,89,62,69,0.00,40.00,4,3,11,0.01
2013-9-8,77.0,67.2,57.0,62.0,57.2,40.0,94,71,51,0.00,40.00,5,3,16,0.00
2013-9-9,82.0,69.1,60.0,64.0,58.6,55.0,91,72,44,0.00,40.00,5,2,18,0.00
2013-9-10,85.0,72.4,59.0,66.0,60.5,42.0,92,68,47,0.00,40.00,6,4,12,0.00
2013-9-11,88.0,77.5,61.0,66.0,58.9,44.0,86,54,37,0.00,40.00,5,1,10,0.00
2013-9-12,79.0,64.7,54.0,65.0,57.0,41.0,91,77,59,0.00,40.00,5,2,10,0.00
2013-9-13,76.0,65.0,56.0,66.0,59.9,52.0,99,85,70,0.00,40.00,6,2,12,0.00
2013-9-14,72.0,61.9,58.0,60.0,52.1,-99.9,98,75,47,0.00,40.00,5,2,11,0.00
2013-9-15,60.0,57.2,54.0,60.0,54.1,46.0,99,89,66,0.00,40.00,3,1,8,0.03
2013-9-16,68.0,60.8,54.0,57.0,54.6,48.0,99,81,63,0.00,40.00,3,1,9,0.01
2013-9-17,62.0,53.7,49.0,54.0,50.9,45.0,99,91,71,0.00,40.00,4,1,12,1.13
2013-9-18,54.0,51.2,50.0,48.0,46.2,44.0,89,83,78,0.00,40.00,3,1,8,1.13
2013-9-19,76.0,61.8,51.0,59.0,49.4,44.0,79,65,46,0.00,40.00,4,1,7,0.00
2013-9-20,73.0,56.8,51.0,54.0,49.4,42.0,99,77,52,0.00,40.00,7,4,16,0.05
2013-9-21,65.0,52.3,50.0,58.0,47.5,-99.9,97,87,70,0.00,40.00,4,1,9,0.57
2013-9-22,53.0,49.8,48.0,52.0,45.9,43.0,99,87,78,0.00,40.00,10,6,27,0.60
2013-9-23,54.0,51.0,49.0,54.0,48.8,42.0,99,92,74,0.00,40.00,6,4,12,0.12
2013-9-24,54.0,48.3,45.0,50.0,45.3,39.0,99,90,71,0.00,40.00,5,3,11,0.73
2013-9-25,53.0,45.5,42.0,50.0,42.8,37.0,99,90,83,0.00,40.00,3,1,11,0.26
2013-9-26,63.0,49.3,43.0,52.0,44.9,38.0,99,86,57,0.00,40.00,1,0,11,0.01
2013-9-27,50.0,46.0,43.0,50.0,42.3,33.0,99,87,68,0.00,40.00,10,4,21,0.08
2013-9-28,58.0,49.8,54.0,49.0,29.8,-99.9,71,60,65,0.00,40.00,12,11,37,1.40
2013-9-30,51.0,47.5,45.0,39.0,37.8,36.0,75,68,60,0.00,40.00,6,4,15,1.29
2013-10-1,50.0,44.8,42.0,45.0,42.4,40.0,99,91,84,0.00,40.00,0,0,5,0.32
2013-10-2,52.0,43.5,38.0,49.0,40.1,31.0,99,89,69,0.00,40.00,4,1,9,0.08
2013-10-3,57.0,45.1,38.0,48.0,38.5,29.0,99,78,68,0.00,40.00,3,1,9,0.01
2013-10-4,63.0,49.3,40.0,49.0,43.4,36.0,99,82,49,0.00,40.00,5,3,11,0.01
2013-10-5,72.0,57.4,49.0,56.0,45.5,33.0,76,65,34,0.00,40.00,6,3,9,0.00
2013-10-6,77.0,63.2,50.0,48.0,40.5,35.0,71,46,27,0.00,40.00,7,4,17,0.00
2013-10-7,59.0,48.1,42.0,52.0,45.8,38.0,99,92,64,0.00,40.00,5,2,13,0.18
2013-10-8,44.0,42.7,41.0,43.0,40.8,36.0,97,93,80,0.00,40.00,3,0,11,0.38
2013-10-9,46.0,42.7,39.0,36.0,30.9,26.0,80,64,54,0.00,40.00,4,1,11,0.36
2013-10-10,48.0,45.0,42.0,40.0,34.6,26.0,74,67,53,0.00,40.00,2,0,6,0.00
2013-10-11,55.0,47.6,42.0,45.0,42.3,35.0,96,82,62,0.00,40.00,3,0,8,0.00
2013-10-12,52.0,45.3,41.0,47.0,40.2,-99.9,96,85,55,0.00,40.00,1,0,7,0.01
2013-10-13,45.0,41.8,38.0,43.0,31.6,24.0,96,68,53,0.00,40.00,4,2,11,0.01
2013-10-14,60.0,49.4,42.0,50.0,43.0,34.0,96,80,54,0.00,40.00,5,4,14,0.01
2013-10-15,63.0,51.7,45.0,45.0,35.5,25.0,67,55,38,0.00,40.00,6,4,12,0.00
2013-10-16,62.0,53.0,46.0,49.0,43.2,35.0,85,70,57,0.00,40.00,4,2,8,0.00
2013-10-17,62.0,52.1,46.0,52.0,45.8,41.0,97,80,64,0.00,40.00,6,3,12,0.00
2013-10-18,66.0,55.0,49.0,54.0,43.0,35.0,74,64,49,0.00,40.00,7,4,12,0.00
2013-10-19,71.0,56.7,51.0,56.0,46.9,-99.9,90,73,42,0.00,40.00,4,2,7,0.00
2013-10-20,66.0,54.4,49.0,55.0,48.9,45.0,91,82,60,0.00,40.00,6,4,10,0.00
2013-10-21,68.0,60.7,52.0,52.0,45.9,39.0,86,59,45,0.00,40.00,6,4,11,0.00
2013-10-22,73.0,64.2,59.0,56.0,51.0,41.0,76,64,52,0.00,40.00,5,3,7,0.00
2013-10-23,69.0,60.0,53.0,57.0,51.1,46.0,92,73,59,0.00,40.00,5,2,10,0.00
2013-10-24,66.0,56.9,50.0,56.0,50.6,45.0,95,80,66,0.00,40.00,4,2,8,0.00
2013-10-25,62.0,50.6,43.0,53.0,46.3,34.0,99,86,60,0.00,40.00,5,2,8,0.00
2013-10-26,53.0,44.1,40.0,48.0,38.6,-99.9,99,85,55,0.00,40.00,8,3,14,0.01
2013-10-27,47.0,43.1,40.0,44.0,41.0,32.0,99,92,64,0.00,40.00,6,4,18,0.18
2013-10-28,55.0,40.6,39.0,40.0,13.7,-99.9,95,76,14,0.00,40.00,5,2,11,0.01
2013-10-29,53.0,53.0,53.0,-99.9,-99.9,-99.9,0,0,100,0.00,40.00,1,1,6,0.00
2013-10-31,51.0,50.5,49.0,49.0,44.2,36.0,93,80,57,0.00,40.00,5,3,11,0.06
2013-11-1,61.0,49.7,43.0,53.0,47.5,41.0,99,92,72,0.00,40.00,7,2,12,0.04
2013-11-2,50.0,44.1,37.0,49.0,42.3,-99.9,99,96,93,0.00,40.00,11,4,32,0.70
2013-11-3,43.0,38.4,36.0,43.0,37.5,34.0,99,96,92,0.00,40.00,4,2,14,0.20
2013-11-4,42.0,39.8,37.0,42.0,38.6,35.0,99,95,94,0.00,40.00,8,5,15,0.16
2013-11-5,49.0,44.8,41.0,47.0,42.7,39.0,95,92,89,0.00,40.00,8,6,15,1.16
2013-11-6,58.0,51.5,48.0,58.0,49.3,43.0,100,92,81,0.00,40.00,5,3,10,0.20
2013-11-7,52.0,46.2,40.0,51.0,44.2,32.0,99,92,69,0.00,40.00,9,5,33,0.65
2013-11-8,49.0,42.4,39.0,48.0,41.1,37.0,99,95,90,0.00,40.00,5,3,13,0.08
2013-11-9,53.0,42.0,37.0,46.0,36.7,-99.9,99,85,63,0.00,40.00,3,1,7,0.01
2013-11-10,55.0,51.4,49.0,49.0,47.9,45.0,98,89,78,0.00,40.00,4,1,8,0.00
2013-11-11,63.0,49.5,46.0,48.0,44.5,39.0,99,84,53,0.00,40.00,5,1,7,0.00
2013-11-12,52.0,48.0,45.0,52.0,45.7,39.0,99,92,70,0.00,40.00,7,3,15,0.37
2013-11-13,50.0,45.3,42.0,43.0,40.2,38.0,91,82,75,0.00,40.00,5,1,11,0.11
2013-11-14,47.0,42.8,39.0,40.0,37.2,32.0,90,82,59,0.00,40.00,2,0,8,0.01
2013-11-15,42.0,40.2,38.0,41.0,36.2,31.0,98,86,70,0.00,40.00,5,2,10,0.11
2013-11-16,45.0,38.5,38.0,43.0,33.4,-99.9,98,89,84,0.00,40.00,4,2,14,0.38
2013-11-17,46.0,42.7,39.0,45.0,40.9,33.0,99,94,76,0.00,40.00,7,3,13,0.06
2013-11-18,49.0,44.1,39.0,44.0,40.7,33.0,98,88,78,0.00,40.00,7,5,13,0.15
2013-11-20,36.0,32.2,28.0,35.0,29.8,19.0,99,91,66,0.00,40.00,7,4,14,0.05
2013-11-21,38.0,32.0,27.0,26.0,17.9,10.0,91,57,35,0.00,40.00,8,5,16,0.01
2013-11-24,52.0,49.6,49.0,30.0,28.4,28.0,44,44,43,0.00,40.00,2,0,5,0.00
2013-11-25,56.0,47.4,43.0,37.0,33.6,29.0,69,59,47,0.00,40.00,4,1,5,0.00
2013-11-27,59.0,48.7,45.0,43.0,34.3,27.0,76,58,47,0.00,40.00,5,4,8,0.00
2013-11-28,56.0,46.1,42.0,41.0,36.6,32.0,78,70,55,0.00,40.00,6,2,11,0.00
2013-11-29,51.0,44.3,40.0,41.0,38.9,37.0,91,81,63,0.00,40.00,4,2,7,0.00
2013-11-30,52.0,44.0,41.0,44.0,37.9,-99.9,96,86,74,0.00,40.00,7,5,12,0.00
2013-12-1,46.0,43.9,42.0,43.0,39.3,34.0,94,84,70,0.00,40.00,9,8,16,0.02
2013-12-2,40.0,33.5,31.0,37.0,32.3,29.0,99,95,84,0.00,40.00,5,2,16,1.83
2013-12-3,36.0,30.2,22.0,36.0,29.8,20.0,99,98,90,0.00,40.00,4,1,12,0.07
2013-12-4,34.0,24.4,20.0,22.0,18.0,14.0,92,77,55,0.00,40.00,4,3,12,0.06
2013-12-5,33.0,23.4,19.0,23.0,17.6,12.0,93,79,61,0.00,40.00,4,1,9,0.01
2013-12-6,28.0,23.7,19.0,27.0,21.8,18.0,99,93,74,0.00,40.00,5,3,12,0.00
2013-12-7,26.0,16.9,13.0,18.0,12.1,-99.9,95,86,65,0.00,40.00,5,3,12,0.11
2013-12-8,32.0,20.7,16.0,20.0,13.5,9.0,81,74,42,0.00,40.00,2,1,8,0.05
2013-12-9,40.0,31.6,28.0,24.0,23.0,18.0,81,72,42,0.00,40.00,0,0,7,0.05
2013-12-10,37.0,32.9,30.0,28.0,26.9,26.0,87,78,67,0.00,40.00,5,3,9,0.00
2013-12-11,46.0,46.0,46.0,31.0,31.0,31.0,55,55,55,0.00,40.00,3,3,6,0.00
2013-12-12,47.0,38.3,37.0,39.0,34.7,29.0,99,88,51,0.00,40.00,8,6,16,0.24
2013-12-13,49.0,41.0,38.0,49.0,39.8,37.0,99,95,90,0.00,40.00,7,5,16,0.23
2013-12-14,48.0,40.0,36.0,41.0,28.6,-99.9,94,77,75,0.00,40.00,8,6,12,0.01
2013-12-15,50.0,42.9,39.0,43.0,40.5,39.0,99,92,78,0.00,40.00,5,3,8,0.00
2013-12-16,48.0,40.2,35.0,47.0,35.9,29.0,99,86,57,0.00,40.00,6,4,11,0.00
2013-12-17,55.0,45.3,40.0,37.0,31.6,26.0,78,59,40,0.00,40.00,6,2,8,0.00
2013-12-18,42.0,37.4,31.0,41.0,35.8,30.0,99,94,64,0.00,40.00,5,1,21,0.05
2013-12-19,37.0,29.5,26.0,34.0,29.1,26.0,99,98,88,0.00,40.00,4,2,16,0.05
2013-12-20,39.0,32.0,27.0,37.0,31.4,27.0,99,97,78,0.00,40.00,12,6,21,0.55
2013-12-21,46.0,41.6,38.0,45.0,35.4,-99.9,99,81,73,0.00,40.00,7,2,13,0.15
2013-12-22,46.0,45.1,42.0,39.0,35.0,30.0,75,67,55,0.00,40.00,5,2,9,0.10
2013-12-24,37.0,34.4,32.0,35.0,29.0,20.0,99,82,55,0.00,40.00,6,2,10,0.08
2013-12-25,44.0,35.1,32.0,35.0,31.8,24.0,99,89,57,0.00,40.00,7,2,10,0.01
2013-12-26,49.0,45.3,43.0,38.0,27.0,22.0,68,49,39,0.00,40.00,5,2,7,0.00
2013-12-27,47.0,43.3,39.0,37.0,32.7,29.0,94,67,55,0.00,40.00,7,1,11,0.00
2013-12-28,42.0,34.1,32.0,38.0,31.7,-99.9,99,94,55,0.00,40.00,6,3,13,0.00
2013-12-29,45.0,34.6,30.0,33.0,27.5,23.0,99,76,48,0.00,40.00,5,2,10,0.00
2013-12-30,50.0,45.7,42.0,37.0,32.3,25.0,75,60,41,0.00,40.00,7,3,14,0.00
2013-12-31,51.0,46.5,41.0,36.0,30.5,22.0,81,55,40,0.00,40.00,5,1,9,0.00
2014-1-1,48.0,44.1,41.0,40.0,34.6,25.0,82,69,51,0.00,40.00,5,2,9,0.00
2014-1-2,57.0,48.0,44.0,40.0,37.4,35.0,84,67,50,0.00,40.00,7,4,14,0.00